createdAt,value
2023-04-15T00:01:43.295Z,11.00
2023-04-15T00:06:53.058Z,12.90
2023-04-15T00:11:54.862Z,11.50
2023-04-15T00:16:57.403Z,13.50
2023-04-15T00:22:00.757Z,15.70
2023-04-15T00:27:02.459Z,18.00
2023-04-15T00:32:04.452Z,15.80
2023-04-15T00:37:06.170Z,19.70
2023-04-15T00:42:07.850Z,21.20
2023-04-15T00:47:11.298Z,26.10
2023-04-15T00:52:13.257Z,18.90
2023-04-15T00:57:14.874Z,17.40
2023-04-15T01:02:16.903Z,8.80
2023-04-15T01:07:19.044Z,7.90
2023-04-15T01:12:21.142Z,9.30
2023-04-15T01:17:24.825Z,6.20
2023-04-15T01:22:27.800Z,8.00
2023-04-15T01:27:30.251Z,5.60
2023-04-15T01:32:32.127Z,7.20
2023-04-15T01:37:34.197Z,5.80
2023-04-15T01:42:38.918Z,4.60
2023-04-15T01:47:40.610Z,2.80
2023-04-15T01:52:44.972Z,3.20
2023-04-15T01:57:47.395Z,3.10
2023-04-15T02:02:49.538Z,3.50
2023-04-15T02:07:52.206Z,3.30
2023-04-15T02:12:54.269Z,5.70
2023-04-15T02:17:57.014Z,4.60
2023-04-15T02:22:58.878Z,5.00
2023-04-15T02:28:00.792Z,7.80
2023-04-15T02:33:03.262Z,35.50
2023-04-15T02:38:05.094Z,41.90
2023-04-15T02:43:07.430Z,73.00
2023-04-15T02:48:09.857Z,80.00
2023-04-15T02:53:11.746Z,85.00
2023-04-15T02:58:13.649Z,40.50
2023-04-15T03:03:15.707Z,26.10
2023-04-15T03:08:17.561Z,24.40
2023-04-15T03:13:20.461Z,19.50
2023-04-15T03:18:23.598Z,24.90
2023-04-15T03:23:25.951Z,18.20
2023-04-15T03:28:29.634Z,17.40
2023-04-15T03:33:32.549Z,15.20
2023-04-15T03:38:34.374Z,16.10
2023-04-15T03:43:36.034Z,12.40
2023-04-15T03:48:37.674Z,15.00
2023-04-15T03:53:39.380Z,13.30
2023-04-15T03:58:41.062Z,15.30
2023-04-15T04:07:18.211Z,16.30
2023-04-15T04:12:20.045Z,15.70
2023-04-15T04:17:21.868Z,16.60
2023-04-15T04:22:24.640Z,16.60
2023-04-15T04:27:26.648Z,23.50
2023-04-15T04:32:28.319Z,38.00
2023-04-15T04:37:30.024Z,44.50
2023-04-15T04:42:31.774Z,40.20
2023-04-15T04:47:33.402Z,19.80
2023-04-15T04:52:35.242Z,13.30
2023-04-15T04:57:37.830Z,11.40
2023-04-15T05:02:39.918Z,10.80
2023-04-15T05:07:42.158Z,10.90
2023-04-15T05:12:44.403Z,12.00
2023-04-15T05:17:46.133Z,16.30
2023-04-15T05:22:47.966Z,12.10
2023-04-15T05:27:49.746Z,15.30
2023-04-15T05:32:51.913Z,24.30
2023-04-15T05:37:53.692Z,20.40
2023-04-15T05:42:55.522Z,21.50
2023-04-15T05:47:57.228Z,17.70
2023-04-15T05:52:59.130Z,14.50
2023-04-15T05:58:00.781Z,12.80
2023-04-15T06:03:02.582Z,10.90
2023-04-15T06:08:04.690Z,8.90
2023-04-15T06:13:06.984Z,10.10
2023-04-15T06:18:08.701Z,11.90
2023-04-15T06:23:10.434Z,8.20
2023-04-15T06:28:12.144Z,11.00
2023-04-15T06:33:14.052Z,9.70
2023-04-15T06:38:15.866Z,7.70
2023-04-15T06:43:17.476Z,9.50
2023-04-15T06:48:19.221Z,9.40
2023-04-15T06:53:21.532Z,9.80
2023-04-15T06:58:23.210Z,8.20
2023-04-15T07:03:24.953Z,7.60
2023-04-15T07:08:26.605Z,8.30
2023-04-15T07:13:30.986Z,9.10
2023-04-15T07:18:32.643Z,7.10
2023-04-15T07:23:34.545Z,6.90
2023-04-15T07:28:36.224Z,5.50
2023-04-15T07:33:37.899Z,10.40
2023-04-15T07:38:39.852Z,9.70
2023-04-15T07:43:41.552Z,7.20
2023-04-15T07:48:43.403Z,6.50
2023-04-15T07:53:45.345Z,8.10
2023-04-15T07:58:47.017Z,8.00
2023-04-15T08:03:52.969Z,6.70
2023-04-15T08:08:55.725Z,7.10
2023-04-15T08:13:57.673Z,6.50
2023-04-15T08:18:59.813Z,5.90
2023-04-15T08:24:01.918Z,5.30
2023-04-15T08:29:03.744Z,5.60
2023-04-15T08:34:05.771Z,5.90
2023-04-15T08:39:07.869Z,5.40
2023-04-15T08:44:10.297Z,5.50
2023-04-15T08:49:13.313Z,7.30
2023-04-15T08:54:15.052Z,5.80
2023-04-15T08:59:17.083Z,5.30
2023-04-15T09:04:19.082Z,4.50
2023-04-15T09:09:20.874Z,3.90
2023-04-15T09:14:23.257Z,3.10
2023-04-15T09:19:25.396Z,4.60
2023-04-15T09:24:37.405Z,2.60
2023-04-15T09:29:41.699Z,1.40
2023-04-15T09:34:43.548Z,1.10
2023-04-15T09:39:52.967Z,3.70
2023-04-15T09:44:55.098Z,4.20
2023-04-15T09:50:01.104Z,2.20
2023-04-15T09:55:02.965Z,2.40
2023-04-15T10:00:11.035Z,2.10
2023-04-15T10:05:15.832Z,1.60
2023-04-15T10:10:18.293Z,3.40
2023-04-15T10:15:21.599Z,3.30
2023-04-15T10:20:24.447Z,2.30
2023-04-15T10:25:26.952Z,11.40
2023-04-15T10:30:29.085Z,4.70
2023-04-15T10:35:32.909Z,2.20
2023-04-15T10:40:35.410Z,3.00
2023-04-15T10:45:37.851Z,1.90
2023-04-15T10:50:39.876Z,1.40
2023-04-15T10:55:41.597Z,2.50
2023-04-15T11:00:52.228Z,2.60
2023-04-15T11:10:56.321Z,1.50
2023-04-15T11:15:59.192Z,2.80
2023-04-15T11:21:03.694Z,4.30
2023-04-15T11:26:11.650Z,4.00
2023-04-15T11:31:16.424Z,3.60
2023-04-15T11:36:18.400Z,3.60
2023-04-15T11:41:22.320Z,4.10
2023-04-15T11:46:30.971Z,2.90
2023-04-15T11:51:34.545Z,2.40
2023-04-15T11:56:36.458Z,2.70
2023-04-15T12:01:47.211Z,2.40
2023-04-15T12:06:48.935Z,3.40
2023-04-15T12:11:53.735Z,3.20
2023-04-15T12:16:59.908Z,4.10
2023-04-15T12:22:22.208Z,2.40
2023-04-15T12:27:29.265Z,3.40
2023-04-15T12:32:35.948Z,2.10
2023-04-15T12:37:37.709Z,2.40
2023-04-15T12:42:40.079Z,3.40
2023-04-15T12:47:41.852Z,3.40
2023-04-15T12:52:43.594Z,3.80
2023-04-15T12:57:46.993Z,2.50
2023-04-15T13:02:49.286Z,2.40
2023-04-15T13:07:51.241Z,2.50
2023-04-15T13:12:53.782Z,3.10
2023-04-15T13:17:55.955Z,2.20
2023-04-15T13:23:01.011Z,3.40
2023-04-15T13:28:03.162Z,4.10
2023-04-15T13:33:05.664Z,6.70
2023-04-15T13:38:07.395Z,3.50
2023-04-15T13:43:18.864Z,3.20
2023-04-15T13:48:20.761Z,3.10
2023-04-15T13:53:33.870Z,3.70
2023-04-15T13:58:41.382Z,4.90
2023-04-15T14:03:43.224Z,4.80
2023-04-15T14:08:45.460Z,3.20
2023-04-15T14:13:47.487Z,3.50
2023-04-15T14:18:49.209Z,3.20
2023-04-15T14:23:51.083Z,3.30
2023-04-15T14:28:52.758Z,4.20
2023-04-15T14:33:54.477Z,4.80
2023-04-15T14:38:56.213Z,4.60
2023-04-15T14:43:58.150Z,5.60
2023-04-15T14:48:59.821Z,4.20
2023-04-15T14:54:01.961Z,7.30
2023-04-15T14:59:03.797Z,6.90
2023-04-15T15:04:06.491Z,5.80
2023-04-15T15:09:08.582Z,6.10
2023-04-15T15:14:10.384Z,4.70
2023-04-15T15:19:12.140Z,3.60
2023-04-15T15:24:13.862Z,3.60
2023-04-15T15:29:15.657Z,6.20
2023-04-15T15:34:17.603Z,4.60
2023-04-15T15:39:19.299Z,5.70
2023-04-15T15:44:21.045Z,7.10
2023-04-15T15:49:22.836Z,4.70
2023-04-15T15:54:25.375Z,39.80
2023-04-15T15:59:27.136Z,12.10
2023-04-15T16:04:29.078Z,16.00
2023-04-15T16:09:31.767Z,13.40
2023-04-15T16:14:33.430Z,10.40
2023-04-15T16:19:35.165Z,28.20
2023-04-15T16:24:36.889Z,9.50
2023-04-15T16:29:38.611Z,8.80
2023-04-15T16:34:41.556Z,11.50
2023-04-15T16:39:43.330Z,9.10
2023-04-15T16:44:44.956Z,9.30
2023-04-15T16:49:47.665Z,6.90
2023-04-15T16:54:49.323Z,6.00
2023-04-15T16:59:51.780Z,7.40
2023-04-15T17:04:53.515Z,6.50
2023-04-15T17:09:55.331Z,6.00
2023-04-15T17:14:57.153Z,6.80
2023-04-15T17:19:58.963Z,25.70
2023-04-15T17:25:00.755Z,16.80
2023-04-15T17:30:02.624Z,41.20
2023-04-15T17:35:06.502Z,28.10
2023-04-15T17:40:09.087Z,10.60
2023-04-15T17:45:11.475Z,8.10
2023-04-15T17:50:13.194Z,5.90
2023-04-15T17:55:15.220Z,62.20
2023-04-15T18:00:17.237Z,29.60
2023-04-15T18:05:19.935Z,21.60
2023-04-15T18:10:21.964Z,24.90
2023-04-15T18:15:23.661Z,12.80
2023-04-15T18:20:25.699Z,40.80
2023-04-15T18:25:27.570Z,64.40
2023-04-15T18:30:29.362Z,176.60
2023-04-15T18:35:31.349Z,81.10
2023-04-15T18:40:33.001Z,21.80
2023-04-15T18:45:34.977Z,23.40
2023-04-15T18:50:37.160Z,25.50
2023-04-15T18:55:39.991Z,14.20
2023-04-15T19:00:43.813Z,14.40
2023-04-15T19:05:45.765Z,24.40
2023-04-15T19:10:47.699Z,30.20
2023-04-15T19:15:49.384Z,24.80
2023-04-15T19:20:52.968Z,26.10
2023-04-15T19:25:54.689Z,21.20
2023-04-15T19:30:58.018Z,30.90
2023-04-15T19:36:05.564Z,35.30
2023-04-15T19:41:09.144Z,47.10
2023-04-15T19:46:13.343Z,41.10
2023-04-15T19:51:17.897Z,43.10
2023-04-15T19:56:20.701Z,41.20
2023-04-15T20:01:23.163Z,25.20
2023-04-15T20:06:25.086Z,19.70
2023-04-15T20:12:06.100Z,22.70
2023-04-15T20:16:51.119Z,28.40
2023-04-15T20:21:54.083Z,30.10
2023-04-15T20:26:57.543Z,35.10
2023-04-15T20:31:59.266Z,32.30
2023-04-15T20:37:01.534Z,32.40
2023-04-15T20:42:03.469Z,25.20
2023-04-15T20:47:06.371Z,20.40
2023-04-15T20:52:08.979Z,17.40
2023-04-15T20:57:10.652Z,15.70
2023-04-15T21:02:12.493Z,16.90
2023-04-15T21:07:14.836Z,18.90
2023-04-15T21:12:16.730Z,32.30
2023-04-15T21:17:19.615Z,29.40
2023-04-15T21:22:21.517Z,37.30
2023-04-15T21:27:23.233Z,40.00
2023-04-15T21:32:26.303Z,36.60
2023-04-15T21:37:27.922Z,36.60
2023-04-15T21:42:30.217Z,46.30
2023-04-15T21:48:00.892Z,43.30
2023-04-15T21:53:08.130Z,60.90
2023-04-15T21:58:09.870Z,59.30
2023-04-15T22:03:12.127Z,49.30
2023-04-15T22:08:14.163Z,47.20
2023-04-15T22:13:16.858Z,42.00
2023-04-15T22:18:18.525Z,52.60
2023-04-15T22:23:20.841Z,49.10
2023-04-15T22:28:22.536Z,47.70
2023-04-15T22:33:24.333Z,48.90
2023-04-15T22:38:26.043Z,52.80
2023-04-15T22:43:27.917Z,51.70
2023-04-15T22:48:29.651Z,43.40
2023-04-15T22:53:31.489Z,44.50
2023-04-15T22:58:33.219Z,44.20
2023-04-15T23:03:35.072Z,42.00
2023-04-15T23:08:59.188Z,29.80
2023-04-15T23:14:29.103Z,28.60
2023-04-15T23:19:30.837Z,27.40
2023-04-15T23:24:32.686Z,33.80
2023-04-15T23:29:34.400Z,31.90
2023-04-15T23:34:37.617Z,26.90
2023-04-15T23:39:42.189Z,28.00
2023-04-15T23:44:44.945Z,25.90
2023-04-15T23:49:52.772Z,20.60
2023-04-15T23:54:54.526Z,22.10
2023-04-15T23:59:56.572Z,26.50
